createdAt,value
2019-05-01T00:00:18.430Z,4.40
2019-05-01T00:03:08.112Z,4.30
2019-05-01T00:05:38.060Z,4.20
2019-05-01T00:08:06.991Z,4.20
2019-05-01T00:10:35.061Z,4.10
2019-05-01T00:13:03.313Z,4.10
2019-05-01T00:15:33.093Z,3.90
2019-05-01T00:18:00.678Z,3.90
2019-05-01T00:20:28.294Z,3.80
2019-05-01T00:22:55.835Z,3.80
2019-05-01T00:25:23.429Z,3.70
2019-05-01T00:27:51.074Z,3.60
2019-05-01T00:30:29.709Z,3.50
2019-05-01T00:32:49.637Z,3.50
2019-05-01T00:35:17.217Z,3.40
2019-05-01T00:37:44.822Z,3.40
2019-05-01T00:40:12.583Z,3.40
2019-05-01T00:42:40.380Z,3.40
2019-05-01T00:45:08.058Z,3.30
2019-05-01T00:47:35.641Z,3.30
2019-05-01T00:50:03.898Z,3.40
2019-05-01T00:52:31.479Z,3.10
2019-05-01T00:55:17.450Z,3.10
2019-05-01T00:57:52.830Z,3.00
2019-05-01T01:00:42.879Z,3.00
2019-05-01T01:03:03.450Z,3.00
2019-05-01T01:05:31.002Z,3.00
2019-05-01T01:08:18.463Z,3.00
2019-05-01T01:10:46.165Z,2.90
2019-05-01T01:13:13.823Z,2.90
2019-05-01T01:15:41.415Z,2.90
2019-05-01T01:18:08.984Z,3.00
2019-05-01T01:20:36.540Z,3.10
2019-05-01T01:23:04.599Z,3.10
2019-05-01T01:25:32.258Z,3.10
2019-05-01T01:27:59.810Z,3.20
2019-05-01T01:30:27.490Z,3.20
2019-05-01T01:32:55.033Z,3.10
2019-05-01T01:35:22.750Z,3.00
2019-05-01T01:37:50.326Z,2.90
2019-05-01T01:40:18.002Z,2.90
2019-05-01T01:42:47.519Z,2.80
2019-05-01T01:45:24.466Z,2.80
2019-05-01T01:48:11.486Z,2.90
2019-05-01T01:50:41.468Z,3.00
2019-05-01T01:53:09.545Z,3.00
2019-05-01T01:55:37.630Z,3.00
2019-05-01T01:58:06.683Z,3.00
2019-05-01T02:01:11.784Z,2.90
2019-05-01T02:03:42.493Z,3.00
2019-05-01T02:06:10.534Z,3.00
2019-05-01T02:08:38.307Z,2.90
2019-05-01T02:11:05.958Z,2.90
2019-05-01T02:13:33.706Z,2.90
2019-05-01T02:16:01.293Z,3.00
2019-05-01T02:18:28.882Z,2.90
2019-05-01T02:20:56.475Z,3.00
2019-05-01T02:23:24.147Z,3.00
2019-05-01T02:25:51.830Z,3.00
2019-05-01T02:28:25.204Z,3.00
2019-05-01T02:31:08.787Z,3.10
2019-05-01T02:33:37.122Z,3.10
2019-05-01T02:36:06.002Z,3.10
2019-05-01T02:38:54.000Z,3.10
2019-05-01T02:41:24.670Z,2.70
2019-05-01T02:43:55.848Z,3.20
2019-05-01T02:46:25.692Z,3.20
2019-05-01T02:49:04.870Z,3.20
2019-05-01T02:51:35.279Z,3.20
2019-05-01T02:54:02.930Z,3.30
2019-05-01T02:56:36.959Z,3.30
2019-05-01T02:59:07.075Z,3.20
2019-05-01T03:01:46.367Z,3.50
2019-05-01T03:04:06.497Z,3.30
2019-05-01T03:06:34.562Z,3.30
2019-05-01T03:09:06.205Z,3.20
2019-05-01T03:11:34.803Z,3.30
2019-05-01T03:14:03.501Z,3.30
2019-05-01T03:16:33.599Z,3.20
2019-05-01T03:19:03.996Z,3.10
2019-05-01T03:21:37.444Z,3.00
2019-05-01T03:24:11.479Z,3.00
2019-05-01T03:26:39.129Z,2.90
2019-05-01T03:29:07.302Z,2.70
2019-05-01T03:31:35.028Z,2.50
2019-05-01T03:34:02.573Z,2.50
2019-05-01T03:36:30.564Z,2.40
2019-05-01T03:38:58.643Z,2.30
2019-05-01T03:41:26.910Z,2.30
2019-05-01T03:43:55.441Z,2.30
2019-05-01T03:46:23.218Z,2.30
2019-05-01T03:48:50.760Z,2.30
2019-05-01T03:51:18.575Z,2.40
2019-05-01T03:53:46.327Z,2.50
2019-05-01T03:56:14.002Z,2.60
2019-05-01T03:58:41.869Z,2.60
2019-05-01T04:01:32.005Z,2.70
2019-05-01T04:04:19.081Z,2.70
2019-05-01T04:06:47.265Z,2.70
2019-05-01T04:09:15.233Z,2.70
2019-05-01T04:11:43.183Z,2.80
2019-05-01T04:14:11.073Z,2.80
2019-05-01T04:16:39.975Z,2.90
2019-05-01T04:19:07.914Z,2.90
2019-05-01T04:21:44.278Z,3.00
2019-05-01T04:24:12.014Z,3.10
2019-05-01T04:26:40.095Z,3.20
2019-05-01T04:29:32.121Z,3.20
2019-05-01T04:32:03.715Z,3.20
2019-05-01T04:34:50.905Z,3.20
2019-05-01T04:37:20.435Z,3.20
2019-05-01T04:39:48.006Z,3.30
2019-05-01T04:42:16.003Z,3.30
2019-05-01T04:44:44.394Z,3.30
2019-05-01T04:47:12.783Z,3.40
2019-05-01T04:49:40.363Z,3.40
2019-05-01T04:52:08.210Z,3.40
2019-05-01T04:54:36.294Z,3.40
2019-05-01T04:57:04.093Z,3.50
2019-05-01T04:59:32.883Z,3.40
2019-05-01T05:02:02.764Z,3.50
2019-05-01T05:04:31.169Z,3.50
2019-05-01T05:06:59.881Z,3.50
2019-05-01T05:09:43.189Z,3.60
2019-05-01T05:12:19.954Z,3.60
2019-05-01T05:14:52.195Z,3.70
2019-05-01T05:17:21.879Z,3.70
2019-05-01T05:19:49.668Z,3.80
2019-05-01T05:22:17.603Z,3.80
2019-05-01T05:24:46.325Z,3.90
2019-05-01T05:27:15.802Z,4.00
2019-05-01T05:29:45.083Z,4.00
2019-05-01T05:32:15.050Z,4.10
2019-05-01T05:34:44.020Z,4.20
2019-05-01T05:37:19.319Z,4.40
2019-05-01T05:39:49.605Z,4.40
2019-05-01T05:42:17.535Z,4.50
2019-05-01T05:44:47.441Z,4.70
2019-05-01T05:47:18.772Z,4.80
2019-05-01T05:49:46.404Z,4.90
2019-05-01T05:52:24.122Z,5.10
2019-05-01T05:55:07.607Z,5.40
2019-05-01T05:57:54.887Z,5.60
2019-05-01T06:00:35.113Z,5.80
2019-05-01T06:03:14.133Z,6.10
2019-05-01T06:05:55.183Z,6.40
2019-05-01T06:08:26.715Z,6.70
2019-05-01T06:11:08.736Z,7.10
2019-05-01T06:14:02.487Z,7.50
2019-05-01T06:16:46.919Z,8.00
2019-05-01T06:19:35.284Z,8.50
2019-05-01T06:22:15.985Z,8.90
2019-05-01T06:24:46.637Z,9.30
2019-05-01T06:27:15.598Z,9.60
2019-05-01T06:29:43.677Z,9.90
2019-05-01T06:32:11.709Z,10.10
2019-05-01T06:34:39.633Z,10.20
2019-05-01T06:37:10.340Z,10.30
2019-05-01T06:39:42.937Z,10.50
2019-05-01T06:42:15.058Z,10.70
2019-05-01T06:44:50.730Z,11.00
2019-05-01T06:47:28.468Z,11.20
2019-05-01T06:50:13.435Z,11.30
2019-05-01T06:52:41.438Z,11.40
2019-05-01T06:55:09.206Z,11.70
2019-05-01T06:57:38.466Z,12.00
2019-05-01T07:00:13.130Z,12.40
2019-05-01T07:02:42.119Z,12.50
2019-05-01T07:05:14.772Z,12.80
2019-05-01T07:07:43.009Z,13.10
2019-05-01T07:10:09.514Z,13.40
2019-05-01T07:12:37.836Z,13.70
2019-05-01T07:15:05.661Z,14.00
2019-05-01T07:17:34.051Z,14.10
2019-05-01T07:20:37.030Z,14.20
2019-05-01T07:23:05.181Z,14.50
2019-05-01T07:25:34.951Z,14.80
2019-05-01T07:28:02.111Z,15.00
2019-05-01T07:30:38.115Z,15.20
2019-05-01T07:33:05.820Z,15.50
2019-05-01T07:35:36.797Z,16.10
2019-05-01T07:38:03.465Z,16.60
2019-05-01T07:40:31.166Z,16.90
2019-05-01T07:43:05.113Z,17.30
2019-05-01T07:45:56.151Z,17.60
2019-05-01T07:48:36.078Z,17.20
2019-05-01T07:51:07.328Z,17.40
2019-05-01T07:53:34.070Z,17.70
2019-05-01T07:56:02.144Z,17.70
2019-05-01T07:58:30.087Z,17.50
2019-05-01T08:01:20.884Z,17.70
2019-05-01T08:03:48.487Z,17.80
2019-05-01T08:06:21.004Z,18.10
2019-05-01T08:08:45.448Z,18.40
2019-05-01T08:11:13.034Z,18.30
2019-05-01T08:13:40.726Z,18.40
2019-05-01T08:16:08.817Z,18.50
2019-05-01T08:18:45.825Z,19.00
2019-05-01T08:21:44.566Z,19.50
2019-05-01T08:24:12.140Z,19.40
2019-05-01T08:26:44.305Z,19.20
2019-05-01T08:29:42.138Z,18.80
2019-05-01T08:32:41.942Z,19.20
2019-05-01T08:35:11.562Z,19.40
2019-05-01T08:37:39.128Z,19.20
2019-05-01T08:40:07.660Z,19.60
2019-05-01T08:42:37.646Z,19.60
2019-05-01T08:45:24.591Z,19.50
2019-05-01T08:48:03.215Z,19.60
2019-05-01T08:50:30.773Z,19.50
2019-05-01T08:52:58.443Z,19.60
2019-05-01T08:55:26.064Z,19.60
2019-05-01T08:57:53.667Z,19.40
2019-05-01T09:00:21.229Z,19.60
2019-05-01T09:02:48.835Z,19.80
2019-05-01T09:05:28.492Z,20.30
2019-05-01T09:07:46.077Z,20.00
2019-05-01T09:10:17.153Z,19.60
2019-05-01T09:12:46.922Z,19.80
2019-05-01T09:15:14.651Z,20.00
2019-05-01T09:17:42.358Z,20.50
2019-05-01T09:20:10.051Z,20.20
2019-05-01T09:22:37.700Z,20.70
2019-05-01T09:25:06.864Z,20.70
2019-05-01T09:27:59.620Z,20.90
2019-05-01T09:30:37.383Z,21.20
2019-05-01T09:33:05.283Z,20.80
2019-05-01T09:35:32.859Z,21.20
2019-05-01T09:38:03.001Z,21.10
2019-05-01T09:40:30.680Z,21.10
2019-05-01T09:42:59.486Z,21.30
2019-05-01T09:45:27.939Z,21.10
2019-05-01T09:47:55.626Z,21.40
2019-05-01T09:50:25.773Z,21.40
2019-05-01T09:53:09.655Z,22.10
2019-05-01T09:55:47.740Z,22.70
2019-05-01T09:58:15.308Z,23.00
2019-05-01T10:00:43.074Z,23.40
2019-05-01T10:03:13.068Z,23.50
2019-05-01T10:05:42.919Z,24.40
2019-05-01T10:08:09.405Z,24.60
2019-05-01T10:10:37.165Z,24.40
2019-05-01T10:13:04.833Z,23.70
2019-05-01T10:15:33.041Z,22.90
2019-05-01T10:18:00.626Z,22.10
2019-05-01T10:20:28.260Z,21.40
2019-05-01T10:22:56.130Z,20.70
2019-05-01T10:25:23.721Z,19.60
2019-05-01T10:27:57.607Z,18.70
2019-05-01T10:30:40.430Z,18.30
2019-05-01T10:33:13.328Z,18.20
2019-05-01T10:36:00.393Z,18.10
2019-05-01T10:38:28.008Z,18.20
2019-05-01T10:40:55.727Z,18.10
2019-05-01T10:43:23.329Z,17.90
2019-05-01T10:45:51.478Z,17.70
2019-05-01T10:48:19.125Z,17.40
2019-05-01T10:50:46.713Z,17.10
2019-05-01T10:53:14.534Z,17.10
2019-05-01T10:55:42.160Z,17.10
2019-05-01T10:58:12.698Z,17.20
2019-05-01T11:00:41.361Z,17.50
2019-05-01T11:03:09.373Z,17.70
2019-05-01T11:05:37.096Z,18.00
2019-05-01T11:08:04.693Z,18.20
2019-05-01T11:10:32.576Z,18.70
2019-05-01T11:13:00.137Z,19.40
2019-05-01T11:15:27.705Z,20.50
2019-05-01T11:17:55.346Z,21.80
2019-05-01T11:20:22.935Z,22.30
2019-05-01T11:22:50.526Z,22.80
2019-05-01T11:25:19.464Z,23.00
2019-05-01T11:27:47.178Z,23.20
2019-05-01T11:30:14.780Z,22.50
2019-05-01T11:33:11.033Z,21.90
2019-05-01T11:36:09.314Z,21.40
2019-05-01T11:38:48.726Z,20.80
2019-05-01T11:41:23.440Z,20.70
2019-05-01T11:43:51.216Z,20.40
2019-05-01T11:46:18.800Z,20.30
2019-05-01T11:48:46.350Z,19.80
2019-05-01T11:51:14.070Z,19.40
2019-05-01T11:53:41.731Z,19.30
2019-05-01T11:56:09.322Z,19.40
2019-05-01T11:58:37.322Z,19.40
2019-05-01T12:01:06.068Z,19.40
2019-05-01T12:03:35.228Z,20.10
2019-05-01T12:06:02.921Z,20.90
2019-05-01T12:08:34.883Z,21.90
2019-05-01T12:11:03.399Z,22.10
2019-05-01T12:13:43.224Z,22.60
2019-05-01T12:16:16.649Z,23.40
2019-05-01T12:18:44.287Z,24.00
2019-05-01T12:21:11.858Z,24.40
2019-05-01T12:23:39.440Z,23.70
2019-05-01T12:26:06.993Z,23.20
2019-05-01T12:28:34.564Z,22.20
2019-05-01T12:31:02.125Z,21.70
2019-05-01T12:33:29.716Z,21.50
2019-05-01T12:35:59.128Z,21.50
2019-05-01T12:38:26.830Z,21.70
2019-05-01T12:41:13.848Z,22.40
2019-05-01T12:43:41.353Z,22.50
2019-05-01T12:46:11.171Z,22.90
2019-05-01T12:48:38.762Z,21.90
2019-05-01T12:51:06.913Z,21.70
2019-05-01T12:53:47.886Z,21.30
2019-05-01T12:56:34.956Z,21.20
2019-05-01T12:59:02.543Z,21.00
2019-05-01T13:01:30.050Z,20.20
2019-05-01T13:03:58.218Z,20.10
2019-05-01T13:06:25.778Z,20.10
2019-05-01T13:08:53.322Z,20.20
2019-05-01T13:11:20.945Z,20.50
2019-05-01T13:13:48.569Z,21.10
2019-05-01T13:16:16.177Z,21.70
2019-05-01T13:18:43.780Z,22.40
2019-05-01T13:21:11.374Z,23.20
2019-05-01T13:23:38.975Z,23.90
2019-05-01T13:26:32.166Z,24.30
2019-05-01T13:29:10.896Z,24.60
2019-05-01T13:31:45.667Z,24.40
2019-05-01T13:34:13.278Z,24.30
2019-05-01T13:36:40.857Z,23.80
2019-05-01T13:39:10.729Z,23.10
2019-05-01T13:41:38.268Z,23.00
2019-05-01T13:44:05.776Z,23.10
2019-05-01T13:46:33.843Z,23.30
2019-05-01T13:49:01.409Z,23.80
2019-05-01T13:51:28.947Z,23.60
2019-05-01T13:53:56.622Z,24.00
2019-05-01T13:56:24.178Z,24.00
2019-05-01T13:58:51.710Z,24.30
2019-05-01T14:01:19.482Z,24.20
2019-05-01T14:03:47.036Z,24.10
2019-05-01T14:06:14.794Z,24.30
2019-05-01T14:08:42.340Z,24.10
2019-05-01T14:11:09.872Z,24.30
2019-05-01T14:13:37.447Z,24.20
2019-05-01T14:16:04.928Z,24.00
2019-05-01T14:18:32.496Z,23.90
2019-05-01T14:21:14.908Z,24.00
2019-05-01T14:24:04.925Z,24.00
2019-05-01T14:26:33.085Z,23.70
2019-05-01T14:29:00.636Z,23.30
2019-05-01T14:31:28.216Z,22.80
2019-05-01T14:33:55.766Z,22.40
2019-05-01T14:36:23.344Z,21.80
2019-05-01T14:38:51.445Z,21.50
2019-05-01T14:41:18.996Z,21.50
2019-05-01T14:43:46.550Z,21.50
2019-05-01T14:46:14.128Z,21.10
2019-05-01T14:48:41.693Z,21.00
2019-05-01T14:51:09.256Z,20.90
2019-05-01T14:53:36.834Z,20.80
2019-05-01T14:56:04.421Z,20.90
2019-05-01T14:58:32.046Z,21.30
2019-05-01T15:00:59.596Z,21.70
2019-05-01T15:03:27.129Z,22.00
2019-05-01T15:05:54.704Z,22.20
2019-05-01T15:08:22.231Z,23.20
2019-05-01T15:10:49.794Z,21.70
2019-05-01T15:13:33.002Z,21.80
2019-05-01T15:16:05.951Z,22.00
2019-05-01T15:18:49.363Z,22.40
2019-05-01T15:21:16.916Z,22.70
2019-05-01T15:23:53.373Z,22.90
2019-05-01T15:26:14.067Z,22.90
2019-05-01T15:28:41.589Z,23.10
2019-05-01T15:31:09.337Z,23.10
2019-05-01T15:33:36.880Z,23.00
2019-05-01T15:36:04.533Z,23.10
2019-05-01T15:38:32.283Z,23.20
2019-05-01T15:41:06.162Z,22.70
2019-05-01T15:43:35.821Z,22.40
2019-05-01T15:46:03.649Z,22.00
2019-05-01T15:48:31.189Z,21.90
2019-05-01T15:50:58.755Z,21.90
2019-05-01T15:53:26.308Z,21.50
2019-05-01T15:55:53.838Z,21.30
2019-05-01T15:58:21.864Z,21.20
2019-05-01T16:00:49.422Z,21.10
2019-05-01T16:03:17.035Z,21.00
2019-05-01T16:05:44.779Z,21.10
2019-05-01T16:08:12.326Z,21.20
2019-05-01T16:10:47.909Z,21.30
2019-05-01T16:13:15.456Z,21.30
2019-05-01T16:15:43.004Z,21.30
2019-05-01T16:18:11.032Z,21.20
2019-05-01T16:20:38.629Z,21.20
2019-05-01T16:23:06.172Z,21.30
2019-05-01T16:25:33.917Z,21.20
2019-05-01T16:28:01.460Z,21.40
2019-05-01T16:30:29.016Z,21.60
2019-05-01T16:32:57.087Z,21.60
2019-05-01T16:35:24.682Z,21.60
2019-05-01T16:37:52.219Z,21.40
2019-05-01T16:40:45.129Z,21.50
2019-05-01T16:43:13.368Z,21.40
2019-05-01T16:45:40.913Z,21.30
2019-05-01T16:48:08.648Z,21.20
2019-05-01T16:50:36.194Z,20.90
2019-05-01T16:53:03.944Z,20.70
2019-05-01T16:55:31.704Z,20.40
2019-05-01T16:58:01.516Z,20.30
2019-05-01T17:01:00.993Z,20.10
2019-05-01T17:03:37.042Z,19.80
2019-05-01T17:06:30.480Z,19.50
2019-05-01T17:09:08.995Z,19.40
2019-05-01T17:11:36.574Z,19.10
2019-05-01T17:14:06.327Z,18.90
2019-05-01T17:16:33.859Z,18.70
2019-05-01T17:19:01.658Z,18.60
2019-05-01T17:21:29.232Z,18.50
2019-05-01T17:23:56.778Z,18.40
2019-05-01T17:26:24.367Z,18.30
2019-05-01T17:28:51.922Z,18.20
2019-05-01T17:31:19.447Z,18.10
2019-05-01T17:33:50.845Z,18.00
2019-05-01T17:36:16.406Z,17.90
2019-05-01T17:38:49.767Z,17.80
2019-05-01T17:41:13.389Z,17.70
2019-05-01T17:43:44.678Z,17.60
2019-05-01T17:46:11.924Z,17.50
2019-05-01T17:48:39.685Z,17.40
2019-05-01T17:51:07.233Z,17.30
2019-05-01T17:53:34.807Z,17.20
2019-05-01T17:56:02.336Z,17.10
2019-05-01T17:58:30.359Z,17.00
2019-05-01T18:01:27.776Z,16.80
2019-05-01T18:04:21.410Z,16.70
2019-05-01T18:06:49.955Z,16.50
2019-05-01T18:09:18.067Z,16.30
2019-05-01T18:11:47.218Z,16.10
2019-05-01T18:14:15.016Z,15.90
2019-05-01T18:16:42.610Z,15.80
2019-05-01T18:19:10.499Z,15.80
2019-05-01T18:21:38.667Z,15.70
2019-05-01T18:24:40.910Z,15.60
2019-05-01T18:27:30.795Z,15.40
2019-05-01T18:30:01.757Z,15.30
2019-05-01T20:07:56.207Z,11.40
2019-05-01T20:10:21.301Z,10.80
2019-05-01T20:12:48.860Z,10.70
2019-05-01T20:15:19.918Z,10.60
2019-05-01T20:17:46.196Z,10.50
2019-05-01T20:20:13.894Z,10.40
2019-05-01T20:22:41.858Z,10.40
2019-05-01T20:25:09.457Z,10.30
2019-05-01T20:27:39.540Z,10.20
2019-05-01T20:30:06.810Z,10.20
2019-05-01T20:32:34.581Z,10.20
2019-05-01T20:35:02.231Z,10.10
2019-05-01T20:37:30.892Z,10.10
2019-05-01T20:40:10.343Z,10.00
2019-05-01T20:42:27.843Z,9.90
2019-05-01T20:45:04.388Z,9.90
2019-05-01T20:50:14.040Z,9.80
2019-05-01T20:52:41.828Z,9.80
2019-05-01T20:55:09.425Z,9.70
2019-05-01T20:57:39.056Z,9.70
2019-05-01T21:00:11.318Z,9.60
2019-05-01T21:02:38.866Z,9.70
2019-05-01T21:05:40.442Z,9.50
2019-05-01T21:08:16.719Z,9.50
2019-05-01T21:10:50.470Z,9.50
2019-05-01T21:13:23.085Z,9.40
2019-05-01T21:15:47.873Z,9.30
2019-05-01T21:18:15.467Z,9.30
2019-05-01T21:20:44.304Z,9.30
2019-05-01T21:23:11.904Z,9.40
2019-05-01T21:25:39.508Z,9.40
2019-05-01T21:28:07.196Z,9.40
2019-05-01T21:30:38.798Z,9.50
2019-05-01T21:33:09.724Z,9.30
2019-05-01T21:35:34.163Z,9.20
2019-05-01T21:38:01.926Z,9.10
2019-05-01T21:40:40.107Z,8.90
2019-05-01T21:42:59.100Z,8.80
2019-05-01T21:45:26.727Z,8.80
2019-05-01T21:47:54.479Z,8.80
2019-05-01T21:50:25.134Z,8.80
2019-05-01T21:52:53.641Z,8.90
2019-05-01T21:55:20.994Z,8.90
2019-05-01T21:57:50.011Z,8.80
2019-05-01T22:00:19.993Z,8.80
2019-05-01T22:02:48.217Z,8.80
2019-05-01T22:05:15.812Z,8.70
2019-05-01T22:07:43.377Z,8.60
2019-05-01T22:10:11.885Z,8.50
2019-05-01T22:12:39.446Z,8.40
2019-05-01T22:15:15.506Z,8.30
2019-05-01T22:18:11.527Z,8.30
2019-05-01T22:20:46.882Z,8.20
2019-05-01T22:23:17.138Z,8.10
2019-05-01T22:25:50.758Z,8.00
2019-05-01T22:28:26.674Z,8.00
2019-05-01T22:31:02.907Z,7.90
2019-05-01T22:33:30.741Z,7.90
2019-05-01T22:35:58.310Z,7.80
2019-05-01T22:38:25.900Z,7.80
2019-05-01T22:41:07.518Z,7.80
2019-05-01T22:43:35.063Z,7.70
2019-05-01T22:46:03.539Z,7.70
2019-05-01T22:48:31.136Z,7.60
2019-05-01T22:51:03.439Z,7.60
2019-05-01T22:53:31.015Z,7.50
2019-05-01T22:56:02.371Z,7.40
2019-05-01T22:58:28.004Z,7.40
2019-05-01T23:00:57.352Z,7.40
2019-05-01T23:03:29.837Z,7.30
2019-05-01T23:06:01.897Z,7.30
2019-05-01T23:08:27.289Z,7.20
2019-05-01T23:10:54.869Z,7.10
2019-05-01T23:13:22.577Z,7.10
2019-05-01T23:15:51.549Z,7.10
2019-05-01T23:18:19.530Z,7.00
2019-05-01T23:20:47.126Z,7.00
2019-05-01T23:23:14.711Z,6.90
2019-05-01T23:25:42.397Z,6.90
2019-05-01T23:28:10.439Z,7.10
2019-05-01T23:30:38.031Z,6.80
2019-05-01T23:33:05.582Z,6.80
2019-05-01T23:35:33.176Z,6.80
2019-05-01T23:38:00.759Z,6.70
2019-05-01T23:40:28.346Z,6.70
2019-05-01T23:42:56.132Z,6.60
2019-05-01T23:45:23.699Z,6.50
2019-05-01T23:47:51.256Z,6.50
2019-05-01T23:50:18.819Z,6.50
2019-05-01T23:52:46.380Z,6.50
2019-05-01T23:55:14.276Z,6.50
2019-05-01T23:57:41.832Z,6.50
